sensor_id;sensor_type;location;lat;lon;timestamp;pressure;altitude;pressure_sealevel;temperature;humidity
4326;BME280;58429;49.826;10.880;2023-06-24T00:00:20;99570;;;15.46;84.45
4326;BME280;58429;49.826;10.880;2023-06-24T00:01:20;99574;;;15.43;84.41
4326;BME280;58429;49.826;10.880;2023-06-24T00:02:20;99573;;;15.42;84.4
4326;BME280;58429;49.826;10.880;2023-06-24T00:03:20;99576;;;15.44;84.42
4326;BME280;58429;49.826;10.880;2023-06-24T00:04:20;99573;;;15.42;84.44
4326;BME280;58429;49.826;10.880;2023-06-24T00:05:20;99575;;;15.39;84.42
4326;BME280;58429;49.826;10.880;2023-06-24T00:06:20;99575;;;15.38;84.41
4326;BME280;58429;49.826;10.880;2023-06-24T00:07:20;99576;;;15.38;84.41
4326;BME280;58429;49.826;10.880;2023-06-24T00:08:20;99577;;;15.37;84.4
4326;BME280;58429;49.826;10.880;2023-06-24T00:09:20;99575;;;15.35;84.45
4326;BME280;58429;49.826;10.880;2023-06-24T00:10:20;99581;;;15.36;84.48
4326;BME280;58429;49.826;10.880;2023-06-24T00:11:20;99586;;;15.34;84.53
4326;BME280;58429;49.826;10.880;2023-06-24T00:12:20;99585;;;15.35;84.55
4326;BME280;58429;49.826;10.880;2023-06-24T00:13:20;99575;;;15.32;84.6
4326;BME280;58429;49.826;10.880;2023-06-24T00:14:20;99580;;;15.34;84.65
4326;BME280;58429;49.826;10.880;2023-06-24T00:15:20;99579;;;15.37;84.65
4326;BME280;58429;49.826;10.880;2023-06-24T00:16:20;99580;;;15.37;84.65
4326;BME280;58429;49.826;10.880;2023-06-24T00:17:20;99581;;;15.37;84.65
4326;BME280;58429;49.826;10.880;2023-06-24T00:18:20;99572;;;15.38;84.66
4326;BME280;58429;49.826;10.880;2023-06-24T00:19:20;99584;;;15.35;84.65
4326;BME280;58429;49.826;10.880;2023-06-24T00:20:20;99580;;;15.36;84.63
4326;BME280;58429;49.826;10.880;2023-06-24T00:21:20;99581;;;15.34;84.66
4326;BME280;58429;49.826;10.880;2023-06-24T00:22:20;99578;;;15.34;84.67
4326;BME280;58429;49.826;10.880;2023-06-24T00:23:21;99583;;;15.35;84.63
4326;BME280;58429;49.826;10.880;2023-06-24T00:24:20;99584;;;15.35;84.62
4326;BME280;58429;49.826;10.880;2023-06-24T00:25:20;99583;;;15.36;84.61
4326;BME280;58429;49.826;10.880;2023-06-24T00:26:20;99583;;;15.36;84.57
4326;BME280;58429;49.826;10.880;2023-06-24T00:27:20;99582;;;15.36;84.58
4326;BME280;58429;49.826;10.880;2023-06-24T00:28:20;99573;;;15.35;84.6
4326;BME280;58429;49.826;10.880;2023-06-24T00:29:20;99577;;;15.33;84.64
4326;BME280;58429;49.826;10.880;2023-06-24T00:30:20;99580;;;15.35;84.63
4326;BME280;58429;49.826;10.880;2023-06-24T00:31:20;99575;;;15.35;84.62
4326;BME280;58429;49.826;10.880;2023-06-24T00:32:20;99572;;;15.34;84.63
4326;BME280;58429;49.826;10.880;2023-06-24T00:33:25;99569;;;15.34;84.62
4326;BME280;58429;49.826;10.880;2023-06-24T00:34:20;99570;;;15.31;84.63
4326;BME280;58429;49.826;10.880;2023-06-24T00:35:20;99569;;;15.3;84.63
4326;BME280;58429;49.826;10.880;2023-06-24T00:36:20;99574;;;15.32;84.7
4326;BME280;58429;49.826;10.880;2023-06-24T00:37:20;99570;;;15.29;84.76
4326;BME280;58429;49.826;10.880;2023-06-24T00:38:20;99573;;;15.31;84.8
4326;BME280;58429;49.826;10.880;2023-06-24T00:39:20;99570;;;15.28;84.76
4326;BME280;58429;49.826;10.880;2023-06-24T00:40:20;99572;;;15.26;84.74
4326;BME280;58429;49.826;10.880;2023-06-24T00:41:20;99575;;;15.29;84.76
4326;BME280;58429;49.826;10.880;2023-06-24T00:42:20;99572;;;15.29;84.73
4326;BME280;58429;49.826;10.880;2023-06-24T00:43:20;99570;;;15.28;84.72
4326;BME280;58429;49.826;10.880;2023-06-24T00:44:20;99566;;;15.26;84.71
4326;BME280;58429;49.826;10.880;2023-06-24T00:45:20;99568;;;15.26;84.73
4326;BME280;58429;49.826;10.880;2023-06-24T00:46:20;99568;;;15.22;84.71
4326;BME280;58429;49.826;10.880;2023-06-24T00:47:20;99564;;;15.26;84.72
4326;BME280;58429;49.826;10.880;2023-06-24T00:48:20;99560;;;15.24;84.73
4326;BME280;58429;49.826;10.880;2023-06-24T00:49:20;99555;;;15.21;84.77
4326;BME280;58429;49.826;10.880;2023-06-24T00:50:20;99556;;;15.24;84.82
4326;BME280;58429;49.826;10.880;2023-06-24T00:51:20;99552;;;15.2;84.87
4326;BME280;58429;49.826;10.880;2023-06-24T00:52:20;99551;;;15.22;84.91
4326;BME280;58429;49.826;10.880;2023-06-24T00:53:20;99551;;;15.14;84.93
4326;BME280;58429;49.826;10.880;2023-06-24T00:54:20;99551;;;15.15;84.97
4326;BME280;58429;49.826;10.880;2023-06-24T00:55:20;99541;;;15.13;84.99
4326;BME280;58429;49.826;10.880;2023-06-24T00:56:20;99549;;;15.11;85.02
4326;BME280;58429;49.826;10.880;2023-06-24T00:57:20;99552;;;15.11;84.99
4326;BME280;58429;49.826;10.880;2023-06-24T00:58:20;99552;;;15.12;84.94
4326;BME280;58429;49.826;10.880;2023-06-24T00:59:20;99554;;;15.15;84.97
4326;BME280;58429;49.826;10.880;2023-06-24T01:00:22;99549;;;15.14;84.96
4326;BME280;58429;49.826;10.880;2023-06-24T01:01:20;99548;;;15.16;84.95
4326;BME280;58429;49.826;10.880;2023-06-24T01:02:20;99549;;;15.12;84.91
4326;BME280;58429;49.826;10.880;2023-06-24T01:03:20;99543;;;15.15;84.99
4326;BME280;58429;49.826;10.880;2023-06-24T01:04:20;99548;;;15.08;85.05
4326;BME280;58429;49.826;10.880;2023-06-24T01:05:20;99544;;;15.16;85.1
4326;BME280;58429;49.826;10.880;2023-06-24T01:06:20;99545;;;15.15;85.11
4326;BME280;58429;49.826;10.880;2023-06-24T01:07:20;99548;;;15.11;85.1
4326;BME280;58429;49.826;10.880;2023-06-24T01:08:25;99551;;;15.13;85.11
4326;BME280;58429;49.826;10.880;2023-06-24T01:09:20;99550;;;15.13;85.16
4326;BME280;58429;49.826;10.880;2023-06-24T01:10:20;99546;;;15.11;85.17
4326;BME280;58429;49.826;10.880;2023-06-24T01:11:20;99547;;;15.12;85.22
4326;BME280;58429;49.826;10.880;2023-06-24T01:12:20;99550;;;15.13;85.23
4326;BME280;58429;49.826;10.880;2023-06-24T01:13:20;99543;;;15.12;85.24
4326;BME280;58429;49.826;10.880;2023-06-24T01:14:20;99542;;;15.11;85.29
4326;BME280;58429;49.826;10.880;2023-06-24T01:15:20;99540;;;15.09;85.34
4326;BME280;58429;49.826;10.880;2023-06-24T01:16:22;99540;;;15.09;85.39
4326;BME280;58429;49.826;10.880;2023-06-24T01:17:23;99538;;;15.07;85.37
4326;BME280;58429;49.826;10.880;2023-06-24T01:18:21;99538;;;15.1;85.34
4326;BME280;58429;49.826;10.880;2023-06-24T01:19:26;99536;;;15.07;85.3
4326;BME280;58429;49.826;10.880;2023-06-24T01:20:21;99535;;;15.08;85.29
4326;BME280;58429;49.826;10.880;2023-06-24T01:21:21;99537;;;15.07;85.26
4326;BME280;58429;49.826;10.880;2023-06-24T01:22:27;99533;;;15.1;85.3
4326;BME280;58429;49.826;10.880;2023-06-24T01:23:24;99542;;;15.08;85.27
4326;BME280;58429;49.826;10.880;2023-06-24T01:24:25;99536;;;15.1;85.22
4326;BME280;58429;49.826;10.880;2023-06-24T01:25:24;99539;;;15.08;85.21
4326;BME280;58429;49.826;10.880;2023-06-24T01:26:22;99535;;;15.08;85.2
4326;BME280;58429;49.826;10.880;2023-06-24T01:27:24;99538;;;15.07;85.23
4326;BME280;58429;49.826;10.880;2023-06-24T01:28:23;99538;;;15.08;85.25
4326;BME280;58429;49.826;10.880;2023-06-24T01:29:26;99531;;;15.07;85.24
4326;BME280;58429;49.826;10.880;2023-06-24T01:30:24;99532;;;15.06;85.24
4326;BME280;58429;49.826;10.880;2023-06-24T01:31:37;99528;;;15.05;85.27
4326;BME280;58429;49.826;10.880;2023-06-24T01:32:22;99530;;;15.05;85.35
4326;BME280;58429;49.826;10.880;2023-06-24T01:33:22;99532;;;15.03;85.39
4326;BME280;58429;49.826;10.880;2023-06-24T01:34:22;99530;;;15.02;85.41
4326;BME280;58429;49.826;10.880;2023-06-24T01:35:20;99527;;;15;85.44
4326;BME280;58429;49.826;10.880;2023-06-24T01:36:20;99529;;;15.06;85.5
4326;BME280;58429;49.826;10.880;2023-06-24T01:37:21;99529;;;15.02;85.52
4326;BME280;58429;49.826;10.880;2023-06-24T01:38:22;99523;;;15.02;85.49
4326;BME280;58429;49.826;10.880;2023-06-24T01:39:20;99526;;;15;85.54
4326;BME280;58429;49.826;10.880;2023-06-24T01:40:21;99522;;;15;85.56
4326;BME280;58429;49.826;10.880;2023-06-24T01:41:21;99525;;;15.03;85.58
4326;BME280;58429;49.826;10.880;2023-06-24T01:42:20;99522;;;14.98;85.59
4326;BME280;58429;49.826;10.880;2023-06-24T01:43:20;99519;;;15.01;85.63
4326;BME280;58429;49.826;10.880;2023-06-24T01:44:20;99519;;;15.01;85.6
4326;BME280;58429;49.826;10.880;2023-06-24T01:45:22;99527;;;14.98;85.59
4326;BME280;58429;49.826;10.880;2023-06-24T01:46:20;99519;;;14.99;85.59
4326;BME280;58429;49.826;10.880;2023-06-24T01:47:21;99519;;;14.98;85.61
4326;BME280;58429;49.826;10.880;2023-06-24T01:48:22;99522;;;15;85.62
4326;BME280;58429;49.826;10.880;2023-06-24T01:49:20;99522;;;14.95;85.6
4326;BME280;58429;49.826;10.880;2023-06-24T01:50:21;99522;;;14.96;85.62
4326;BME280;58429;49.826;10.880;2023-06-24T01:51:20;99515;;;14.95;85.65
4326;BME280;58429;49.826;10.880;2023-06-24T01:52:20;99519;;;14.95;85.73
4326;BME280;58429;49.826;10.880;2023-06-24T01:53:20;99512;;;14.93;85.8
4326;BME280;58429;49.826;10.880;2023-06-24T01:54:20;99509;;;14.9;85.83
4326;BME280;58429;49.826;10.880;2023-06-24T01:55:20;99515;;;14.91;85.79
4326;BME280;58429;49.826;10.880;2023-06-24T01:56:21;99513;;;14.87;85.94
4326;BME280;58429;49.826;10.880;2023-06-24T01:57:20;99509;;;14.84;86.02
4326;BME280;58429;49.826;10.880;2023-06-24T01:58:20;99510;;;14.87;86.01
4326;BME280;58429;49.826;10.880;2023-06-24T01:59:20;99507;;;14.85;86.02
4326;BME280;58429;49.826;10.880;2023-06-24T02:00:20;99514;;;14.83;85.99
4326;BME280;58429;49.826;10.880;2023-06-24T02:01:20;99509;;;14.87;85.93
4326;BME280;58429;49.826;10.880;2023-06-24T02:02:20;99505;;;14.84;85.84
4326;BME280;58429;49.826;10.880;2023-06-24T02:03:20;99510;;;14.82;85.89
4326;BME280;58429;49.826;10.880;2023-06-24T02:04:20;99509;;;14.81;85.91
4326;BME280;58429;49.826;10.880;2023-06-24T02:05:20;99510;;;14.76;85.93
4326;BME280;58429;49.826;10.880;2023-06-24T02:06:20;99507;;;14.75;85.92
4326;BME280;58429;49.826;10.880;2023-06-24T02:07:20;99511;;;14.77;85.93
4326;BME280;58429;49.826;10.880;2023-06-24T02:08:20;99514;;;14.72;85.96
4326;BME280;58429;49.826;10.880;2023-06-24T02:09:20;99515;;;14.69;85.96
4326;BME280;58429;49.826;10.880;2023-06-24T02:10:20;99517;;;14.68;85.95
4326;BME280;58429;49.826;10.880;2023-06-24T02:11:20;99515;;;14.67;85.94
4326;BME280;58429;49.826;10.880;2023-06-24T02:12:20;99511;;;14.66;85.92
4326;BME280;58429;49.826;10.880;2023-06-24T02:13:20;99512;;;14.64;85.93
4326;BME280;58429;49.826;10.880;2023-06-24T02:14:20;99516;;;14.63;85.89
4326;BME280;58429;49.826;10.880;2023-06-24T02:15:20;99512;;;14.62;85.86
4326;BME280;58429;49.826;10.880;2023-06-24T02:16:20;99506;;;14.61;85.84
4326;BME280;58429;49.826;10.880;2023-06-24T02:17:20;99511;;;14.65;85.83
4326;BME280;58429;49.826;10.880;2023-06-24T02:18:20;99509;;;14.59;85.86
4326;BME280;58429;49.826;10.880;2023-06-24T02:19:20;99501;;;14.61;85.88
4326;BME280;58429;49.826;10.880;2023-06-24T02:20:20;99506;;;14.62;85.91
4326;BME280;58429;49.826;10.880;2023-06-24T02:21:20;99507;;;14.59;85.85
4326;BME280;58429;49.826;10.880;2023-06-24T02:22:20;99506;;;14.61;85.79
4326;BME280;58429;49.826;10.880;2023-06-24T02:23:20;99505;;;14.57;85.68
4326;BME280;58429;49.826;10.880;2023-06-24T02:24:20;99500;;;14.59;85.54
4326;BME280;58429;49.826;10.880;2023-06-24T02:25:25;99498;;;14.55;85.44
4326;BME280;58429;49.826;10.880;2023-06-24T02:26:20;99503;;;14.54;85.44
4326;BME280;58429;49.826;10.880;2023-06-24T02:27:20;99506;;;14.48;85.51
4326;BME280;58429;49.826;10.880;2023-06-24T02:28:20;99500;;;14.43;85.66
4326;BME280;58429;49.826;10.880;2023-06-24T02:29:20;99498;;;14.4;85.76
4326;BME280;58429;49.826;10.880;2023-06-24T02:30:20;99501;;;14.39;85.84
4326;BME280;58429;49.826;10.880;2023-06-24T02:31:20;99501;;;14.34;85.93
4326;BME280;58429;49.826;10.880;2023-06-24T02:32:20;99494;;;14.34;86
4326;BME280;58429;49.826;10.880;2023-06-24T02:33:20;99500;;;14.33;86.04
4326;BME280;58429;49.826;10.880;2023-06-24T02:34:20;99502;;;14.34;86.04
4326;BME280;58429;49.826;10.880;2023-06-24T02:35:20;99494;;;14.33;86.04
4326;BME280;58429;49.826;10.880;2023-06-24T02:36:20;99490;;;14.34;86.06
4326;BME280;58429;49.826;10.880;2023-06-24T02:37:20;99496;;;14.33;86.06
4326;BME280;58429;49.826;10.880;2023-06-24T02:38:20;99491;;;14.34;86.03
4326;BME280;58429;49.826;10.880;2023-06-24T02:39:20;99495;;;14.33;86.21
4326;BME280;58429;49.826;10.880;2023-06-24T02:40:20;99505;;;14.32;86.26
4326;BME280;58429;49.826;10.880;2023-06-24T02:41:20;99497;;;14.32;86.23
4326;BME280;58429;49.826;10.880;2023-06-24T02:42:20;99496;;;14.34;86.19
4326;BME280;58429;49.826;10.880;2023-06-24T02:43:20;99495;;;14.29;86.12
4326;BME280;58429;49.826;10.880;2023-06-24T02:44:20;99503;;;14.33;86.1
4326;BME280;58429;49.826;10.880;2023-06-24T02:45:20;99509;;;14.3;86.04
4326;BME280;58429;49.826;10.880;2023-06-24T02:46:20;99509;;;14.32;86.05
4326;BME280;58429;49.826;10.880;2023-06-24T02:47:20;99506;;;14.3;86
4326;BME280;58429;49.826;10.880;2023-06-24T02:48:20;99511;;;14.3;85.93
4326;BME280;58429;49.826;10.880;2023-06-24T02:49:20;99515;;;14.3;85.89
4326;BME280;58429;49.826;10.880;2023-06-24T02:50:20;99509;;;14.3;85.82
4326;BME280;58429;49.826;10.880;2023-06-24T02:51:20;99510;;;14.25;85.8
4326;BME280;58429;49.826;10.880;2023-06-24T02:52:20;99512;;;14.29;85.69
4326;BME280;58429;49.826;10.880;2023-06-24T02:53:20;99513;;;14.29;85.61
4326;BME280;58429;49.826;10.880;2023-06-24T02:54:20;99514;;;14.26;85.49
4326;BME280;58429;49.826;10.880;2023-06-24T02:55:21;99516;;;14.22;85.39
4326;BME280;58429;49.826;10.880;2023-06-24T02:56:20;99515;;;14.23;85.42
4326;BME280;58429;49.826;10.880;2023-06-24T02:57:20;99517;;;14.26;85.53
4326;BME280;58429;49.826;10.880;2023-06-24T02:58:20;99514;;;14.25;85.6
4326;BME280;58429;49.826;10.880;2023-06-24T02:59:20;99519;;;14.28;85.56
4326;BME280;58429;49.826;10.880;2023-06-24T03:00:20;99523;;;14.3;85.51
4326;BME280;58429;49.826;10.880;2023-06-24T03:01:20;99519;;;14.3;85.44
4326;BME280;58429;49.826;10.880;2023-06-24T03:02:20;99513;;;14.25;85.44
4326;BME280;58429;49.826;10.880;2023-06-24T03:03:20;99519;;;14.24;85.49
4326;BME280;58429;49.826;10.880;2023-06-24T03:04:20;99517;;;14.2;85.53
4326;BME280;58429;49.826;10.880;2023-06-24T03:05:20;99521;;;14.19;85.61
4326;BME280;58429;49.826;10.880;2023-06-24T03:06:20;99522;;;14.11;85.66
4326;BME280;58429;49.826;10.880;2023-06-24T03:07:20;99526;;;14.09;85.74
4326;BME280;58429;49.826;10.880;2023-06-24T03:08:20;99524;;;14.09;85.78
4326;BME280;58429;49.826;10.880;2023-06-24T03:09:20;99532;;;14.06;85.82
4326;BME280;58429;49.826;10.880;2023-06-24T03:10:20;99527;;;14.04;85.88
4326;BME280;58429;49.826;10.880;2023-06-24T03:11:20;99537;;;14.03;85.87
4326;BME280;58429;49.826;10.880;2023-06-24T03:12:20;99534;;;13.98;85.9
4326;BME280;58429;49.826;10.880;2023-06-24T03:13:20;99538;;;13.99;85.9
4326;BME280;58429;49.826;10.880;2023-06-24T03:14:20;99538;;;13.97;85.93
4326;BME280;58429;49.826;10.880;2023-06-24T03:15:20;99543;;;13.96;85.9
4326;BME280;58429;49.826;10.880;2023-06-24T03:16:25;99542;;;13.98;85.88
4326;BME280;58429;49.826;10.880;2023-06-24T03:17:20;99538;;;13.98;85.8
4326;BME280;58429;49.826;10.880;2023-06-24T03:18:20;99540;;;13.95;85.58
4326;BME280;58429;49.826;10.880;2023-06-24T03:19:20;99538;;;13.94;85.41
4326;BME280;58429;49.826;10.880;2023-06-24T03:20:20;99536;;;13.91;85.27
4326;BME280;58429;49.826;10.880;2023-06-24T03:21:20;99541;;;13.94;85.19
4326;BME280;58429;49.826;10.880;2023-06-24T03:22:21;99540;;;13.91;85.13
4326;BME280;58429;49.826;10.880;2023-06-24T03:23:20;99530;;;13.9;85.11
4326;BME280;58429;49.826;10.880;2023-06-24T03:24:20;99536;;;13.88;85.08
4326;BME280;58429;49.826;10.880;2023-06-24T03:25:20;99536;;;13.88;85.1
4326;BME280;58429;49.826;10.880;2023-06-24T03:26:20;99539;;;13.86;85.07
4326;BME280;58429;49.826;10.880;2023-06-24T03:27:20;99538;;;13.87;85.11
4326;BME280;58429;49.826;10.880;2023-06-24T03:28:20;99536;;;13.87;85.2
4326;BME280;58429;49.826;10.880;2023-06-24T03:29:20;99533;;;13.85;85.26
4326;BME280;58429;49.826;10.880;2023-06-24T03:30:20;99540;;;13.86;85.3
4326;BME280;58429;49.826;10.880;2023-06-24T03:31:20;99534;;;13.83;85.33
4326;BME280;58429;49.826;10.880;2023-06-24T03:32:20;99538;;;13.86;85.33
4326;BME280;58429;49.826;10.880;2023-06-24T03:33:20;99533;;;13.83;85.37
4326;BME280;58429;49.826;10.880;2023-06-24T03:34:20;99535;;;13.85;85.44
4326;BME280;58429;49.826;10.880;2023-06-24T03:35:20;99536;;;13.84;85.51
4326;BME280;58429;49.826;10.880;2023-06-24T03:36:20;99543;;;13.85;85.47
4326;BME280;58429;49.826;10.880;2023-06-24T03:37:20;99541;;;13.83;85.33
4326;BME280;58429;49.826;10.880;2023-06-24T03:38:20;99538;;;13.82;85.25
4326;BME280;58429;49.826;10.880;2023-06-24T03:39:20;99541;;;13.82;85.16
4326;BME280;58429;49.826;10.880;2023-06-24T03:40:20;99546;;;13.81;85.14
4326;BME280;58429;49.826;10.880;2023-06-24T03:41:20;99546;;;13.82;85.13
4326;BME280;58429;49.826;10.880;2023-06-24T03:42:20;99551;;;13.81;85.08
4326;BME280;58429;49.826;10.880;2023-06-24T03:43:20;99550;;;13.83;85.07
4326;BME280;58429;49.826;10.880;2023-06-24T03:44:20;99546;;;13.83;85.07
4326;BME280;58429;49.826;10.880;2023-06-24T03:45:20;99544;;;13.81;85.06
4326;BME280;58429;49.826;10.880;2023-06-24T03:46:20;99552;;;13.85;85.08
4326;BME280;58429;49.826;10.880;2023-06-24T03:47:20;99557;;;13.8;85.15
4326;BME280;58429;49.826;10.880;2023-06-24T03:48:20;99556;;;13.79;85.2
4326;BME280;58429;49.826;10.880;2023-06-24T03:49:20;99553;;;13.81;85.24
4326;BME280;58429;49.826;10.880;2023-06-24T03:50:20;99550;;;13.81;85.33
4326;BME280;58429;49.826;10.880;2023-06-24T03:51:20;99556;;;13.81;85.32
4326;BME280;58429;49.826;10.880;2023-06-24T03:52:20;99553;;;13.78;85.33
4326;BME280;58429;49.826;10.880;2023-06-24T03:53:20;99552;;;13.82;85.34
4326;BME280;58429;49.826;10.880;2023-06-24T03:54:20;99557;;;13.81;85.35
4326;BME280;58429;49.826;10.880;2023-06-24T03:55:20;99562;;;13.8;85.4
4326;BME280;58429;49.826;10.880;2023-06-24T03:56:20;99557;;;13.8;85.37
4326;BME280;58429;49.826;10.880;2023-06-24T03:57:20;99562;;;13.8;85.45
4326;BME280;58429;49.826;10.880;2023-06-24T03:58:20;99565;;;13.79;85.47
4326;BME280;58429;49.826;10.880;2023-06-24T03:59:20;99567;;;13.79;85.51
4326;BME280;58429;49.826;10.880;2023-06-24T04:00:20;99565;;;13.8;85.49
4326;BME280;58429;49.826;10.880;2023-06-24T04:01:20;99576;;;13.79;85.51
4326;BME280;58429;49.826;10.880;2023-06-24T04:02:20;99574;;;13.82;85.53
4326;BME280;58429;49.826;10.880;2023-06-24T04:03:20;99579;;;13.78;85.55
4326;BME280;58429;49.826;10.880;2023-06-24T04:04:20;99572;;;13.8;85.6
4326;BME280;58429;49.826;10.880;2023-06-24T04:05:20;99570;;;13.75;85.63
4326;BME280;58429;49.826;10.880;2023-06-24T04:06:20;99579;;;13.77;85.67
4326;BME280;58429;49.826;10.880;2023-06-24T04:07:20;99579;;;13.78;85.66
4326;BME280;58429;49.826;10.880;2023-06-24T04:08:20;99576;;;13.72;85.64
4326;BME280;58429;49.826;10.880;2023-06-24T04:09:20;99579;;;13.75;85.68
4326;BME280;58429;49.826;10.880;2023-06-24T04:10:20;99580;;;13.76;85.7
4326;BME280;58429;49.826;10.880;2023-06-24T04:11:20;99574;;;13.75;85.65
4326;BME280;58429;49.826;10.880;2023-06-24T04:12:20;99584;;;13.77;85.65
4326;BME280;58429;49.826;10.880;2023-06-24T04:13:20;99581;;;13.78;85.65
4326;BME280;58429;49.826;10.880;2023-06-24T04:14:20;99582;;;13.82;85.64
4326;BME280;58429;49.826;10.880;2023-06-24T04:15:20;99582;;;13.81;85.65
4326;BME280;58429;49.826;10.880;2023-06-24T04:16:20;99583;;;13.8;85.63
4326;BME280;58429;49.826;10.880;2023-06-24T04:17:20;99586;;;13.82;85.61
4326;BME280;58429;49.826;10.880;2023-06-24T04:18:20;99585;;;13.81;85.61
4326;BME280;58429;49.826;10.880;2023-06-24T04:19:20;99586;;;13.82;85.59
4326;BME280;58429;49.826;10.880;2023-06-24T04:20:20;99585;;;13.83;85.58
4326;BME280;58429;49.826;10.880;2023-06-24T04:21:20;99588;;;13.84;85.59
4326;BME280;58429;49.826;10.880;2023-06-24T04:22:20;99590;;;13.83;85.59
4326;BME280;58429;49.826;10.880;2023-06-24T04:23:20;99591;;;13.81;85.6
4326;BME280;58429;49.826;10.880;2023-06-24T04:24:20;99599;;;13.82;85.62
4326;BME280;58429;49.826;10.880;2023-06-24T04:25:20;99598;;;13.83;85.63
4326;BME280;58429;49.826;10.880;2023-06-24T04:26:20;99599;;;13.83;85.63
4326;BME280;58429;49.826;10.880;2023-06-24T04:27:20;99588;;;13.84;85.67
4326;BME280;58429;49.826;10.880;2023-06-24T04:28:20;99595;;;13.84;85.66
4326;BME280;58429;49.826;10.880;2023-06-24T04:29:20;99595;;;13.83;85.69
4326;BME280;58429;49.826;10.880;2023-06-24T04:30:20;99603;;;13.86;85.71
4326;BME280;58429;49.826;10.880;2023-06-24T04:31:20;99597;;;13.87;85.74
4326;BME280;58429;49.826;10.880;2023-06-24T04:32:20;99598;;;13.85;85.76
4326;BME280;58429;49.826;10.880;2023-06-24T04:33:20;99598;;;13.88;85.77
4326;BME280;58429;49.826;10.880;2023-06-24T04:34:20;99595;;;13.89;85.76
4326;BME280;58429;49.826;10.880;2023-06-24T04:35:20;99596;;;13.89;85.77
4326;BME280;58429;49.826;10.880;2023-06-24T04:36:20;99598;;;13.89;85.76
4326;BME280;58429;49.826;10.880;2023-06-24T04:37:20;99600;;;13.91;85.78
4326;BME280;58429;49.826;10.880;2023-06-24T04:38:20;99594;;;13.92;85.75
4326;BME280;58429;49.826;10.880;2023-06-24T04:39:20;99598;;;13.9;85.78
4326;BME280;58429;49.826;10.880;2023-06-24T04:40:20;99598;;;13.95;85.76
4326;BME280;58429;49.826;10.880;2023-06-24T04:41:20;99596;;;13.97;85.74
4326;BME280;58429;49.826;10.880;2023-06-24T04:42:20;99594;;;13.97;85.66
4326;BME280;58429;49.826;10.880;2023-06-24T04:43:20;99593;;;13.98;85.64
4326;BME280;58429;49.826;10.880;2023-06-24T04:44:20;99601;;;13.99;85.6
4326;BME280;58429;49.826;10.880;2023-06-24T04:45:20;99604;;;14.01;85.62
4326;BME280;58429;49.826;10.880;2023-06-24T04:46:20;99602;;;14.03;85.63
4326;BME280;58429;49.826;10.880;2023-06-24T04:47:20;99604;;;14.03;85.65
4326;BME280;58429;49.826;10.880;2023-06-24T04:48:22;99611;;;14.08;85.7
4326;BME280;58429;49.826;10.880;2023-06-24T04:49:20;99613;;;14.05;85.71
4326;BME280;58429;49.826;10.880;2023-06-24T04:50:20;99607;;;14.09;85.72
4326;BME280;58429;49.826;10.880;2023-06-24T04:51:20;99616;;;14.11;85.73
4326;BME280;58429;49.826;10.880;2023-06-24T04:52:21;99626;;;14.11;85.71
4326;BME280;58429;49.826;10.880;2023-06-24T04:53:20;99613;;;14.15;85.75
4326;BME280;58429;49.826;10.880;2023-06-24T04:54:20;99624;;;14.19;85.75
4326;BME280;58429;49.826;10.880;2023-06-24T04:55:20;99627;;;14.2;85.76
4326;BME280;58429;49.826;10.880;2023-06-24T04:56:20;99615;;;14.24;85.81
4326;BME280;58429;49.826;10.880;2023-06-24T04:57:24;99624;;;14.25;85.83
4326;BME280;58429;49.826;10.880;2023-06-24T04:58:20;99625;;;14.25;85.78
4326;BME280;58429;49.826;10.880;2023-06-24T04:59:20;99618;;;14.26;85.75
4326;BME280;58429;49.826;10.880;2023-06-24T05:00:20;99616;;;14.31;85.77
4326;BME280;58429;49.826;10.880;2023-06-24T05:01:21;99613;;;14.32;85.78
4326;BME280;58429;49.826;10.880;2023-06-24T05:02:20;99613;;;14.31;85.76
4326;BME280;58429;49.826;10.880;2023-06-24T05:03:20;99611;;;14.32;85.76
4326;BME280;58429;49.826;10.880;2023-06-24T05:04:20;99613;;;14.33;85.77
4326;BME280;58429;49.826;10.880;2023-06-24T05:05:21;99615;;;14.38;85.79
4326;BME280;58429;49.826;10.880;2023-06-24T05:06:20;99615;;;14.38;85.78
4326;BME280;58429;49.826;10.880;2023-06-24T05:07:20;99614;;;14.41;85.78
4326;BME280;58429;49.826;10.880;2023-06-24T05:08:20;99615;;;14.41;85.8
4326;BME280;58429;49.826;10.880;2023-06-24T05:09:20;99620;;;14.49;85.82
4326;BME280;58429;49.826;10.880;2023-06-24T05:10:20;99616;;;14.48;85.85
4326;BME280;58429;49.826;10.880;2023-06-24T05:11:20;99614;;;14.48;85.89
4326;BME280;58429;49.826;10.880;2023-06-24T05:12:20;99615;;;14.51;85.92
4326;BME280;58429;49.826;10.880;2023-06-24T05:13:20;99622;;;14.57;85.94
4326;BME280;58429;49.826;10.880;2023-06-24T05:14:20;99614;;;14.59;85.94
4326;BME280;58429;49.826;10.880;2023-06-24T05:15:20;99622;;;14.61;85.98
4326;BME280;58429;49.826;10.880;2023-06-24T05:16:20;99619;;;14.59;85.93
4326;BME280;58429;49.826;10.880;2023-06-24T05:17:20;99617;;;14.68;85.9
4326;BME280;58429;49.826;10.880;2023-06-24T05:18:20;99620;;;14.68;85.88
4326;BME280;58429;49.826;10.880;2023-06-24T05:19:20;99618;;;14.68;85.83
4326;BME280;58429;49.826;10.880;2023-06-24T05:20:20;99622;;;14.73;85.82
4326;BME280;58429;49.826;10.880;2023-06-24T05:21:20;99623;;;14.75;85.75
4326;BME280;58429;49.826;10.880;2023-06-24T05:22:20;99624;;;14.75;85.76
4326;BME280;58429;49.826;10.880;2023-06-24T05:23:20;99626;;;14.75;85.69
4326;BME280;58429;49.826;10.880;2023-06-24T05:24:20;99625;;;14.77;85.68
4326;BME280;58429;49.826;10.880;2023-06-24T05:25:20;99621;;;14.81;85.62
4326;BME280;58429;49.826;10.880;2023-06-24T05:26:20;99627;;;14.8;85.6
4326;BME280;58429;49.826;10.880;2023-06-24T05:27:20;99618;;;14.84;85.54
4326;BME280;58429;49.826;10.880;2023-06-24T05:28:20;99630;;;14.85;85.58
4326;BME280;58429;49.826;10.880;2023-06-24T05:29:20;99621;;;14.87;85.62
4326;BME280;58429;49.826;10.880;2023-06-24T05:30:20;99628;;;14.91;85.67
4326;BME280;58429;49.826;10.880;2023-06-24T05:31:20;99630;;;14.92;85.63